Time;durP1;ratioP1;P1;durP2;ratioP2;P2;SDS_P1;SDS_P2;PMS_P1;PMS_P2;Temp;Humidity;BMP_temperature;BMP_pressure;BME280_temperature;BME280_humidity;BME280_pressure;Samples;Min_cycle;Max_cycle;Signal;HPM_P1;HPM_P2
2021/09/26 00:01:42;;;;;;;17.63;10.73;;;18.10;14.00;;;;;;5017913;28;20138;-70
2021/09/26 00:04:11;;;;;;;15.07;10.98;;;18.00;14.20;;;;;;5022104;28;20574;-70
2021/09/26 00:06:39;;;;;;;15.32;11.30;;;18.00;15.00;;;;;;5031515;28;20449;-71
2021/09/26 00:09:12;;;;;;;13.10;10.90;;;17.80;15.80;;;;;;5040173;28;20162;-73
2021/09/26 00:11:41;;;;;;;14.25;10.95;;;17.80;15.80;;;;;;5037117;28;20080;-71
2021/09/26 00:14:14;;;;;;;13.63;10.77;;;17.80;16.80;;;;;;5036053;28;20045;-70
2021/09/26 00:16:44;;;;;;;14.52;10.95;;;17.80;16.80;;;;;;5044383;28;20047;-70
2021/09/26 00:19:12;;;;;;;12.90;10.63;;;17.80;16.80;;;;;;5019929;28;20106;-70
2021/09/26 00:21:43;;;;;;;14.75;10.80;;;17.70;17.50;;;;;;5038351;28;20041;-70
2021/09/26 00:24:39;;;;;;;14.43;11.63;;;17.60;17.70;;;;;;5023925;28;20064;-71
2021/09/26 00:27:12;;;;;;;14.55;11.38;;;17.70;17.90;;;;;;5042796;28;20064;-71
2021/09/26 00:29:43;;;;;;;15.23;11.68;;;17.70;17.70;;;;;;5035389;28;20068;-71
2021/09/26 00:32:13;;;;;;;15.02;11.45;;;17.70;18.20;;;;;;5038437;28;20099;-70
2021/09/26 00:34:44;;;;;;;12.75;10.68;;;17.60;18.60;;;;;;5047234;28;20052;-69
2021/09/26 00:37:12;;;;;;;14.15;11.45;;;17.60;18.80;;;;;;5023243;28;20080;-69
2021/09/26 00:39:40;;;;;;;14.35;10.98;;;17.40;19.70;;;;;;5039596;28;20075;-69
2021/09/26 00:42:08;;;;;;;16.17;11.90;;;17.30;20.30;;;;;;5037567;28;20079;-71
2021/09/26 00:44:39;;;;;;;15.65;11.57;;;17.20;21.70;;;;;;5038573;28;20381;-71
2021/09/26 00:47:07;;;;;;;14.68;11.13;;;17.20;21.90;;;;;;5042390;28;20053;-69
2021/09/26 00:49:39;;;;;;;14.73;11.25;;;17.10;22.70;;;;;;5023150;28;20053;-70
2021/09/26 00:52:21;;;;;;;13.75;10.63;;;17.10;23.80;;;;;;5035905;28;20072;-71
2021/09/26 00:54:49;;;;;;;15.30;11.50;;;17.00;24.40;;;;;;5023371;28;20037;-71
2021/09/26 00:57:21;;;;;;;15.43;10.80;;;16.90;25.90;;;;;;5041723;28;20049;-70
2021/09/26 00:59:51;;;;;;;13.88;10.13;;;16.80;26.40;;;;;;5040071;28;20289;-71
2021/09/26 01:02:19;;;;;;;14.02;10.85;;;16.80;26.70;;;;;;5031956;28;20148;-71
2021/09/26 01:04:50;;;;;;;15.82;10.90;;;16.80;26.70;;;;;;5023205;28;20100;-72
2021/09/26 01:07:26;;;;;;;13.45;10.52;;;16.70;26.90;;;;;;5041232;28;20118;-70
2021/09/26 01:10:03;;;;;;;13.98;10.50;;;16.70;27.60;;;;;;5033800;28;20508;-70
2021/09/26 01:12:42;;;;;;;15.90;11.00;;;16.60;27.90;;;;;;5033448;28;20043;-70
2021/09/26 01:15:25;;;;;;;13.05;10.35;;;16.70;28.00;;;;;;5042047;28;20506;-71
2021/09/26 01:18:05;;;;;;;12.45;10.65;;;16.70;28.10;;;;;;5020902;28;20040;-71
2021/09/26 01:20:53;;;;;;;13.95;11.43;;;16.60;27.90;;;;;;5041559;28;20538;-71
2021/09/26 01:24:01;;;;;;;14.77;11.88;;;16.60;28.50;;;;;;5040163;28;20085;-70
2021/09/26 01:26:43;;;;;;;13.52;10.30;;;16.70;28.00;;;;;;5000711;28;20132;-71
2021/09/26 01:29:39;;;;;;;14.13;10.55;;;16.70;28.10;;;;;;5041227;28;20444;-71
2021/09/26 01:32:13;;;;;;;12.68;10.40;;;16.60;29.00;;;;;;5041032;28;20048;-70
2021/09/26 01:34:45;;;;;;;14.27;10.73;;;16.60;29.10;;;;;;5043369;28;20107;-71
2021/09/26 01:37:21;;;;;;;12.07;10.10;;;16.70;28.40;;;;;;5042784;28;20041;-70
2021/09/26 01:40:02;;;;;;;15.13;10.95;;;16.70;28.50;;;;;;5032644;28;20045;-70
2021/09/26 01:42:39;;;;;;;13.57;10.55;;;16.80;28.10;;;;;;5031311;28;20128;-70
2021/09/26 01:45:21;;;;;;;14.10;10.32;;;16.80;27.90;;;;;;5041160;28;20116;-73
2021/09/26 01:47:57;;;;;;;15.48;10.27;;;16.90;27.90;;;;;;5037447;28;20064;-69
2021/09/26 01:50:31;;;;;;;12.60;10.40;;;16.90;27.90;;;;;;5023849;28;20065;-69
2021/09/26 01:53:05;;;;;;;;;;;16.90;27.70;;;;;;5039736;28;20045;-71
2021/09/26 01:55:38;;;;;;;13.70;9.73;;;17.00;27.50;;;;;;5048216;28;19924;-70
2021/09/26 01:58:09;;;;;;;12.35;10.00;;;17.10;26.90;;;;;;5038553;28;20065;-71
2021/09/26 02:00:39;;;;;;;15.68;9.20;;;17.10;26.90;;;;;;5039074;28;20041;-71
2021/09/26 02:03:14;;;;;;;13.48;9.32;;;17.10;26.90;;;;;;5045563;28;20049;-71
2021/09/26 02:05:46;;;;;;;10.18;8.43;;;17.00;27.50;;;;;;5029751;28;20136;-71
2021/09/26 02:08:15;;;;;;;12.15;9.20;;;17.00;27.30;;;;;;5033703;28;20128;-71
2021/09/26 02:10:48;;;;;;;12.30;9.85;;;17.10;26.90;;;;;;5042194;28;20053;-71
2021/09/26 02:13:19;;;;;;;12.40;9.13;;;17.10;26.90;;;;;;5039301;28;20102;-71
2021/09/26 02:15:49;;;;;;;12.82;8.55;;;17.20;27.00;;;;;;5047369;28;20053;-71
2021/09/26 02:18:20;;;;;;;10.90;9.32;;;17.10;26.90;;;;;;5028830;28;20159;-71
2021/09/26 02:20:52;;;;;;;11.27;9.27;;;17.10;26.90;;;;;;5037657;28;20040;-71
2021/09/26 02:23:25;;;;;;;16.88;9.40;;;16.90;27.60;;;;;;5039532;28;20045;-71
2021/09/26 02:25:59;;;;;;;;;;;16.90;28.00;;;;;;5033586;28;20049;-70
2021/09/26 02:28:27;;;;;;;13.48;9.73;;;16.90;28.30;;;;;;5031213;28;19927;-71
2021/09/26 02:30:55;;;;;;;11.45;9.10;;;16.90;28.50;;;;;;5026093;28;20072;-71
2021/09/26 02:33:26;;;;;;;14.68;9.15;;;16.90;28.10;;;;;;5024893;28;20045;-70
2021/09/26 02:35:56;;;;;;;12.13;10.10;;;16.90;28.10;;;;;;5041021;28;20208;-70
2021/09/26 02:38:24;;;;;;;13.77;10.48;;;16.80;28.60;;;;;;5043914;28;20099;-70
2021/09/26 02:40:58;;;;;;;12.25;9.43;;;16.70;29.00;;;;;;5040907;28;20037;-70
2021/09/26 02:43:33;;;;;;;11.27;8.77;;;16.80;29.10;;;;;;5016038;28;20068;-71
2021/09/26 02:46:09;;;;;;;14.70;10.13;;;16.70;29.00;;;;;;5048483;28;20404;-70
2021/09/26 02:48:40;;;;;;;12.10;9.15;;;16.70;29.60;;;;;;5039171;28;20032;-70
2021/09/26 02:51:09;;;;;;;12.93;10.60;;;16.70;30.00;;;;;;5044134;28;20098;-71
2021/09/26 02:53:38;;;;;;;12.07;9.43;;;16.60;29.90;;;;;;5039641;28;20123;-71
2021/09/26 02:56:07;;;;;;;10.55;8.93;;;16.60;30.00;;;;;;5044496;28;20496;-71
2021/09/26 02:58:38;;;;;;;13.68;9.60;;;16.60;30.60;;;;;;5040245;28;20072;-71
2021/09/26 03:01:07;;;;;;;12.13;10.00;;;16.60;31.10;;;;;;5045756;28;20132;-71
2021/09/26 03:03:41;;;;;;;12.75;10.43;;;16.60;30.80;;;;;;5036925;28;20136;-70
2021/09/26 03:06:15;;;;;;;12.90;10.38;;;16.50;31.10;;;;;;5024126;28;20049;-70
2021/09/26 03:08:46;;;;;;;13.02;9.48;;;16.50;31.00;;;;;;5024289;28;20408;-69
2021/09/26 03:11:18;;;;;;;12.02;9.05;;;16.50;31.20;;;;;;5040767;28;20099;-70
2021/09/26 03:13:49;;;;;;;12.75;9.70;;;16.40;31.50;;;;;;5039146;28;20045;-70
2021/09/26 03:16:20;;;;;;;10.82;9.35;;;16.40;32.10;;;;;;5037946;28;20536;-71
2021/09/26 03:18:51;;;;;;;11.15;9.60;;;16.40;32.40;;;;;;5040859;28;20520;-70
2021/09/26 03:21:19;;;;;;;13.52;8.85;;;16.40;32.30;;;;;;5037553;28;20060;-71
2021/09/26 03:23:47;;;;;;;12.55;8.57;;;16.30;32.80;;;;;;5050046;28;20048;-70
2021/09/26 03:26:19;;;;;;;14.73;9.02;;;16.30;34.00;;;;;;5044298;28;20048;-70
2021/09/26 03:28:48;;;;;;;11.65;8.45;;;16.40;34.20;;;;;;5038477;28;20067;-71
2021/09/26 03:31:17;;;;;;;11.13;9.02;;;16.30;34.10;;;;;;5037550;28;20504;-70
2021/09/26 03:33:45;;;;;;;10.98;8.90;;;16.30;34.80;;;;;;5044901;28;20041;-70
2021/09/26 03:36:16;;;;;;;13.27;9.40;;;16.20;35.20;;;;;;5038094;28;20042;-70
2021/09/26 03:38:49;;;;;;;11.25;8.80;;;16.20;35.50;;;;;;5041888;28;20148;-70
2021/09/26 03:41:18;;;;;;;13.70;9.15;;;16.10;36.10;;;;;;5043897;28;20037;-71
2021/09/26 03:43:50;;;;;;;11.98;9.20;;;16.10;36.70;;;;;;5009361;28;20045;-70
2021/09/26 03:46:20;;;;;;;12.40;9.23;;;16.20;37.50;;;;;;5038019;28;20107;-71
2021/09/26 03:48:49;;;;;;;13.82;8.98;;;16.20;37.60;;;;;;5045078;28;20290;-71
2021/09/26 03:51:22;;;;;;;11.77;9.02;;;16.10;37.50;;;;;;5037767;28;20408;-71
2021/09/26 03:53:50;;;;;;;13.10;9.90;;;16.00;38.70;;;;;;5040410;28;20037;-71
2021/09/26 03:56:22;;;;;;;11.60;9.13;;;16.00;39.60;;;;;;5042868;28;20045;-70
2021/09/26 03:58:55;;;;;;;15.85;9.10;;;16.10;39.50;;;;;;5038591;28;20530;-70
2021/09/26 04:01:32;;;;;;;12.00;9.95;;;16.20;40.00;;;;;;5035026;28;20060;-69
2021/09/26 04:04:00;;;;;;;12.48;8.55;;;16.10;40.00;;;;;;5041735;28;20053;-71
2021/09/26 04:06:30;;;;;;;12.48;9.25;;;16.10;40.00;;;;;;5023233;28;20049;-71
2021/09/26 04:09:01;;;;;;;11.02;8.88;;;16.10;39.60;;;;;;5036703;28;20496;-70
2021/09/26 04:11:32;;;;;;;11.35;9.52;;;16.10;39.80;;;;;;5038250;28;20076;-70
2021/09/26 04:14:06;;;;;;;15.00;9.02;;;16.00;39.80;;;;;;5039816;28;20836;-70
2021/09/26 04:16:36;;;;;;;13.65;9.85;;;16.10;40.50;;;;;;5038829;28;20037;-70
2021/09/26 04:19:05;;;;;;;15.07;9.35;;;16.10;40.70;;;;;;5024964;28;20069;-70
2021/09/26 04:21:35;;;;;;;12.90;9.38;;;16.10;40.10;;;;;;5039446;28;20091;-70
2021/09/26 04:24:03;;;;;;;12.90;9.80;;;16.10;39.80;;;;;;5037162;28;20250;-71
2021/09/26 04:26:31;;;;;;;11.60;9.23;;;16.10;40.10;;;;;;5043730;28;20393;-68
2021/09/26 04:28:59;;;;;;;10.82;8.73;;;16.10;39.60;;;;;;5038850;28;20045;-70
2021/09/26 04:31:28;;;;;;;15.50;9.48;;;16.00;39.90;;;;;;5040272;28;20548;-70
2021/09/26 04:34:01;;;;;;;12.48;9.35;;;16.00;41.20;;;;;;5038528;28;20410;-70
2021/09/26 04:36:32;;;;;;;17.40;10.02;;;16.00;42.40;;;;;;5043887;28;20041;-70
2021/09/26 04:39:04;;;;;;;10.85;9.68;;;16.00;42.40;;;;;;5037699;28;20496;-70
2021/09/26 04:41:32;;;;;;;11.20;9.10;;;16.00;42.40;;;;;;5035996;28;20053;-69
2021/09/26 04:44:00;;;;;;;16.20;9.63;;;16.10;42.60;;;;;;5040033;28;20063;-70
2021/09/26 04:46:28;;;;;;;12.48;9.13;;;16.10;42.80;;;;;;5040161;28;20045;-70
2021/09/26 04:48:58;;;;;;;12.70;8.68;;;16.10;43.20;;;;;;5035369;28;20045;-71
2021/09/26 04:51:30;;;;;;;12.00;8.90;;;16.10;42.70;;;;;;5040038;28;20097;-70
2021/09/26 04:54:03;;;;;;;10.95;9.05;;;16.20;42.60;;;;;;5039902;28;20043;-70
2021/09/26 04:56:32;;;;;;;16.13;9.32;;;16.20;43.10;;;;;;5040563;28;20560;-71
2021/09/26 04:59:02;;;;;;;12.23;9.15;;;16.30;42.60;;;;;;5039727;28;20643;-70
2021/09/26 05:01:34;;;;;;;13.48;9.85;;;16.30;42.60;;;;;;5037424;28;20048;-71
2021/09/26 05:04:06;;;;;;;13.80;9.48;;;16.30;42.60;;;;;;5025510;28;20052;-69
2021/09/26 05:06:38;;;;;;;10.95;8.75;;;16.20;43.10;;;;;;5048033;28;20053;-71
2021/09/26 05:09:08;;;;;;;12.82;9.50;;;16.30;43.20;;;;;;5041332;28;20179;-70
2021/09/26 05:11:37;;;;;;;12.43;8.82;;;16.30;43.20;;;;;;5042979;28;20103;-70
2021/09/26 05:14:05;;;;;;;12.18;9.02;;;16.40;42.80;;;;;;5044914;28;20500;-70
2021/09/26 05:16:34;;;;;;;11.73;8.30;;;16.50;42.70;;;;;;5042000;28;20049;-70
2021/09/26 05:19:09;;;;;;;14.57;8.60;;;16.40;42.60;;;;;;5039370;28;20120;-69
2021/09/26 05:21:37;;;;;;;13.15;8.73;;;16.40;42.70;;;;;;5047106;28;20484;-69
2021/09/26 05:24:10;;;;;;;13.07;8.95;;;16.40;42.70;;;;;;5038082;28;20059;-69
2021/09/26 05:26:42;;;;;;;13.77;8.93;;;16.40;42.60;;;;;;5043165;28;20053;-70
2021/09/26 05:29:16;;;;;;;13.70;9.73;;;16.40;42.70;;;;;;5044479;28;20444;-72
2021/09/26 05:31:49;;;;;;;15.38;9.43;;;16.30;42.70;;;;;;5037319;28;20033;-71
2021/09/26 05:34:22;;;;;;;11.00;9.38;;;16.30;43.00;;;;;;5049719;28;20123;-70
2021/09/26 05:36:50;;;;;;;11.30;9.30;;;16.30;43.00;;;;;;5041863;28;20041;-70
2021/09/26 05:39:21;;;;;;;11.93;9.45;;;16.40;42.70;;;;;;5038778;28;21510;-71
2021/09/26 05:41:51;;;;;;;13.55;10.18;;;16.30;42.70;;;;;;5045986;28;20139;-72
2021/09/26 05:44:20;;;;;;;12.88;10.02;;;16.30;42.60;;;;;;5026612;28;20037;-69
2021/09/26 05:46:49;;;;;;;13.32;10.45;;;16.30;43.10;;;;;;5031382;28;20099;-69
2021/09/26 05:49:18;;;;;;;13.50;9.65;;;16.40;42.90;;;;;;5036789;28;20060;-69
2021/09/26 05:51:49;;;;;;;12.85;9.38;;;16.40;42.70;;;;;;5049512;28;20132;-69
2021/09/26 05:54:21;;;;;;;13.40;9.70;;;16.50;42.80;;;;;;5040878;28;20076;-70
2021/09/26 05:56:52;;;;;;;13.90;9.40;;;16.50;42.80;;;;;;5045694;28;20124;-70
2021/09/26 05:59:20;;;;;;;13.90;10.13;;;16.60;42.60;;;;;;5041726;28;20056;-69
2021/09/26 06:01:48;;;;;;;11.82;8.68;;;16.60;41.50;;;;;;5037781;28;20045;-70
2021/09/26 06:04:19;;;;;;;13.77;9.35;;;16.70;41.30;;;;;;5044242;28;20133;-70
2021/09/26 06:06:48;;;;;;;12.13;9.77;;;16.80;40.60;;;;;;5045291;28;20069;-70
2021/09/26 06:09:16;;;;;;;11.27;9.35;;;16.80;39.60;;;;;;5041937;28;20136;-72
2021/09/26 06:11:45;;;;;;;15.25;9.65;;;16.70;39.40;;;;;;5039389;28;20052;-69
2021/09/26 06:14:13;;;;;;;12.02;8.93;;;16.80;39.30;;;;;;5043468;28;20037;-69
2021/09/26 06:16:44;;;;;;;11.63;8.10;;;16.70;37.70;;;;;;5041619;28;20496;-69
2021/09/26 06:19:16;;;;;;;10.23;8.95;;;16.60;38.10;;;;;;5035814;28;20168;-68
2021/09/26 06:21:48;;;;;;;10.20;7.82;;;16.60;37.50;;;;;;5046905;28;20110;-69
2021/09/26 06:24:18;;;;;;;11.80;8.63;;;16.70;37.20;;;;;;5046324;28;20107;-70
2021/09/26 06:26:50;;;;;;;12.35;9.02;;;16.90;36.70;;;;;;5042677;28;20091;-70
2021/09/26 06:29:18;;;;;;;11.93;8.50;;;17.00;35.30;;;;;;5038019;28;21356;-69
2021/09/26 06:31:48;;;;;;;11.63;9.70;;;17.20;34.90;;;;;;5044638;28;20041;-68
2021/09/26 06:34:17;;;;;;;14.65;10.18;;;17.20;34.80;;;;;;5039163;28;20901;-69
2021/09/26 06:36:45;;;;;;;11.85;9.13;;;17.30;35.10;;;;;;5040130;28;20063;-69
2021/09/26 06:39:16;;;;;;;12.68;9.90;;;17.40;34.20;;;;;;5038445;28;20065;-71
2021/09/26 06:41:46;;;;;;;14.93;9.35;;;17.50;32.60;;;;;;5050439;28;20114;-70
2021/09/26 06:44:15;;;;;;;14.88;8.75;;;17.70;32.30;;;;;;5038974;28;20037;-69
2021/09/26 06:46:43;;;;;;;9.10;7.88;;;17.70;29.70;;;;;;5039373;28;20111;-70
2021/09/26 06:49:12;;;;;;;11.98;8.52;;;17.70;27.90;;;;;;5042524;28;20049;-70
2021/09/26 06:51:43;;;;;;;13.38;9.15;;;17.80;28.20;;;;;;5038592;28;20041;-70
2021/09/26 06:54:11;;;;;;;18.05;9.30;;;17.90;28.00;;;;;;5041292;28;20127;-70
2021/09/26 06:56:44;;;;;;;12.85;9.75;;;18.00;27.50;;;;;;5048333;28;20045;-70
2021/09/26 06:59:12;;;;;;;11.38;8.68;;;18.20;25.50;;;;;;5036133;28;20045;-69
2021/09/26 07:01:42;;;;;;;11.85;8.77;;;18.20;24.90;;;;;;5046106;28;20504;-70
2021/09/26 07:04:10;;;;;;;11.43;9.00;;;18.40;25.20;;;;;;5038818;28;20044;-70
2021/09/26 07:06:43;;;;;;;13.13;8.63;;;18.40;24.40;;;;;;5039484;28;20376;-70
2021/09/26 07:09:11;;;;;;;11.40;9.23;;;18.40;24.30;;;;;;5040395;28;20051;-71
2021/09/26 07:11:48;;;;;;;11.90;9.05;;;18.50;24.40;;;;;;5040346;28;20044;-70
2021/09/26 07:14:17;;;;;;;12.15;8.10;;;18.50;23.80;;;;;;5038333;28;20107;-71
2021/09/26 07:16:49;;;;;;;11.95;8.40;;;18.60;23.40;;;;;;5029844;28;20103;-71
2021/09/26 07:19:20;;;;;;;11.18;8.25;;;18.70;22.80;;;;;;5043765;28;20073;-70
2021/09/26 07:21:49;;;;;;;12.30;9.20;;;18.60;22.40;;;;;;5035197;28;20073;-70
2021/09/26 07:24:21;;;;;;;12.80;9.15;;;18.70;22.50;;;;;;5043656;28;20086;-71
2021/09/26 07:26:48;;;;;;;10.98;8.68;;;18.70;22.00;;;;;;5042109;28;20064;-71
2021/09/26 07:29:19;;;;;;;12.02;8.75;;;18.80;22.40;;;;;;5033617;28;20052;-70
2021/09/26 07:31:52;;;;;;;11.00;9.25;;;18.90;21.20;;;;;;5044716;28;20114;-69
2021/09/26 07:34:20;;;;;;;11.20;8.23;;;19.00;21.20;;;;;;5041710;28;20045;-70
2021/09/26 07:36:49;;;;;;;11.68;8.77;;;19.00;20.90;;;;;;5039006;28;20037;-70
2021/09/26 07:39:17;;;;;;;13.15;8.35;;;19.10;20.30;;;;;;5042328;28;20049;-70
2021/09/26 07:41:49;;;;;;;10.15;8.30;;;19.20;19.90;;;;;;5041357;28;20049;-71
2021/09/26 07:44:21;;;;;;;12.25;8.55;;;19.30;19.20;;;;;;5037099;28;20508;-70
2021/09/26 07:46:52;;;;;;;9.95;8.05;;;19.30;18.70;;;;;;5040148;28;20056;-70
2021/09/26 07:49:21;;;;;;;11.23;7.93;;;19.50;18.90;;;;;;5036121;28;20048;-70
2021/09/26 07:51:52;;;;;;;10.73;8.73;;;19.40;19.00;;;;;;5028428;28;20047;-72
2021/09/26 07:54:23;;;;;;;10.13;7.80;;;19.30;19.90;;;;;;5039934;28;20033;-71
2021/09/26 07:56:51;;;;;;;11.65;8.15;;;19.30;19.90;;;;;;5048207;28;20305;-70
2021/09/26 07:59:20;;;;;;;15.20;8.93;;;19.30;19.80;;;;;;5034828;28;20044;-72
2021/09/26 08:01:49;;;;;;;15.13;8.48;;;19.60;19.70;;;;;;5042065;28;20046;-70
2021/09/26 08:04:20;;;;;;;12.65;8.90;;;19.60;19.40;;;;;;5043527;28;20063;-70
2021/09/26 08:06:48;;;;;;;9.80;8.45;;;19.60;19.10;;;;;;5038067;28;20072;-70
2021/09/26 08:09:18;;;;;;;10.90;7.95;;;19.60;19.60;;;;;;5024709;28;20071;-69
2021/09/26 08:11:46;;;;;;;10.65;8.55;;;19.70;19.20;;;;;;5041167;28;20488;-69
2021/09/26 08:14:18;;;;;;;18.75;9.18;;;19.60;19.30;;;;;;5038866;28;20199;-70
2021/09/26 08:16:46;;;;;;;13.48;8.90;;;19.50;18.70;;;;;;5048900;28;20088;-69
2021/09/26 08:19:21;;;;;;;11.85;8.02;;;19.60;19.00;;;;;;5036537;28;20049;-70
2021/09/26 08:21:53;;;;;;;11.33;8.53;;;19.70;18.70;;;;;;5037729;28;20041;-71
2021/09/26 08:24:21;;;;;;;11.52;9.00;;;19.60;18.30;;;;;;5037761;28;20498;-70
2021/09/26 08:26:49;;;;;;;14.68;9.07;;;19.60;19.90;;;;;;5024351;28;20057;-70
2021/09/26 08:29:17;;;;;;;11.60;8.10;;;19.70;19.00;;;;;;5019081;28;20148;-70
2021/09/26 08:31:46;;;;;;;12.85;8.18;;;19.80;18.60;;;;;;5042777;28;20464;-70
2021/09/26 08:34:18;;;;;;;10.55;8.25;;;19.80;18.10;;;;;;5041784;28;20528;-70
2021/09/26 08:36:48;;;;;;;10.65;8.68;;;19.90;18.20;;;;;;5039244;28;20048;-70
2021/09/26 08:39:17;;;;;;;13.88;7.95;;;20.10;17.70;;;;;;5036688;28;20128;-70
2021/09/26 08:41:55;;;;;;;11.35;7.55;;;20.40;16.40;;;;;;5045620;28;20108;-71
2021/09/26 08:44:28;;;;;;;9.98;7.63;;;20.40;14.90;;;;;;5034824;28;20047;-70
2021/09/26 08:47:01;;;;;;;8.55;7.07;;;20.60;14.40;;;;;;5040026;28;20080;-71
2021/09/26 08:49:30;;;;;;;11.55;7.65;;;20.70;14.60;;;;;;5043495;28;20045;-70
2021/09/26 08:52:04;;;;;;;12.20;8.27;;;20.70;14.20;;;;;;5038993;28;20136;-71
2021/09/26 08:54:31;;;;;;;11.40;8.27;;;20.70;14.30;;;;;;5011147;28;20136;-70
2021/09/26 08:57:02;;;;;;;12.57;7.47;;;20.80;14.00;;;;;;5037822;28;20040;-70
2021/09/26 08:59:32;;;;;;;12.30;7.75;;;20.90;13.70;;;;;;5040599;28;20116;-70
2021/09/26 09:02:02;;;;;;;12.13;7.40;;;21.10;13.30;;;;;;5041306;28;20456;-70
2021/09/26 09:04:35;;;;;;;10.20;6.78;;;21.40;11.90;;;;;;5036088;28;20743;-70
2021/09/26 09:07:07;;;;;;;;;;;21.50;11.00;;;;;;5041554;28;21002;-70
2021/09/26 09:09:49;;;;;;;9.95;6.97;;;21.60;10.40;;;;;;5025992;28;20360;-71
2021/09/26 09:12:26;;;;;;;10.07;6.13;;;21.60;9.90;;;;;;5038194;28;20098;-71
2021/09/26 09:14:59;;;;;;;10.02;6.85;;;21.50;8.80;;;;;;5005740;28;20064;-70
2021/09/26 09:17:32;;;;;;;11.25;6.15;;;21.60;8.40;;;;;;5038593;28;20052;-72
2021/09/26 09:20:22;;;;;;;;;;;21.70;8.30;;;;;;5044051;28;20095;-71
2021/09/26 09:22:57;;;;;;;11.95;6.57;;;21.60;9.70;;;;;;5035377;28;20010;-72
2021/09/26 09:25:36;;;;;;;7.50;5.53;;;21.70;6.80;;;;;;5017631;28;20037;-70
2021/09/26 09:28:08;;;;;;;9.95;5.90;;;21.70;6.00;;;;;;5035863;28;20045;-70
2021/09/26 09:30:40;;;;;;;11.15;5.90;;;21.70;5.60;;;;;;5046167;28;20128;-71
2021/09/26 09:33:10;;;;;;;11.57;6.50;;;21.70;5.70;;;;;;5033293;28;20048;-70
2021/09/26 09:35:43;;;;;;;10.80;5.90;;;21.70;6.10;;;;;;5038104;28;20064;-70
2021/09/26 09:38:22;;;;;;;10.20;5.22;;;21.60;7.20;;;;;;5045072;28;20542;-71
2021/09/26 09:40:53;;;;;;;9.90;5.85;;;21.40;6.90;;;;;;5035242;28;20041;-70
2021/09/26 09:43:22;;;;;;;9.27;5.63;;;21.50;6.70;;;;;;5023906;28;20045;-70
2021/09/26 09:45:54;;;;;;;10.23;5.57;;;21.50;6.90;;;;;;5043652;28;20132;-72
2021/09/26 09:48:30;;;;;;;9.15;5.43;;;21.40;8.10;;;;;;5040149;28;20136;-71
2021/09/26 09:51:02;;;;;;;9.23;5.90;;;21.20;8.50;;;;;;5037258;28;20041;-71
2021/09/26 09:53:38;;;;;;;6.85;5.80;;;21.20;8.00;;;;;;5043815;28;20059;-71
2021/09/26 09:56:17;;;;;;;11.20;6.50;;;21.10;7.90;;;;;;5043413;28;20510;-69
2021/09/26 09:58:47;;;;;;;8.95;6.10;;;21.10;8.20;;;;;;5031679;28;20105;-71
2021/09/26 10:01:18;;;;;;;10.57;6.65;;;21.10;8.30;;;;;;5040658;28;20049;-71
2021/09/26 10:03:50;;;;;;;9.13;6.68;;;21.20;8.70;;;;;;5038779;28;20069;-71
2021/09/26 10:06:29;;;;;;;10.45;7.57;;;21.20;8.00;;;;;;5039448;28;20045;-71
2021/09/26 10:09:11;;;;;;;7.88;6.63;;;21.10;5.20;;;;;;5041176;28;20120;-70
2021/09/26 10:11:45;;;;;;;13.63;7.28;;;21.00;4.60;;;;;;5044193;28;20617;-71
2021/09/26 10:14:16;;;;;;;8.35;7.40;;;21.00;4.80;;;;;;5033977;28;20045;-71
2021/09/26 10:16:46;;;;;;;9.18;6.78;;;20.90;5.20;;;;;;5045683;28;20412;-70
2021/09/26 10:19:15;;;;;;;8.32;7.30;;;20.90;4.80;;;;;;5039322;28;20053;-70
2021/09/26 10:21:43;;;;;;;9.85;7.72;;;20.90;5.80;;;;;;5039340;28;20041;-70
2021/09/26 10:24:13;;;;;;;13.90;7.53;;;21.00;6.50;;;;;;5022522;28;20048;-71
2021/09/26 10:26:45;;;;;;;9.15;7.82;;;21.00;6.80;;;;;;5044356;28;20090;-71
2021/09/26 10:29:14;;;;;;;12.05;8.05;;;20.90;7.20;;;;;;5036245;28;20041;-71
2021/09/26 10:31:47;;;;;;;10.30;7.70;;;20.80;7.00;;;;;;5040224;28;20590;-72
2021/09/26 10:34:20;;;;;;;8.95;7.50;;;20.60;7.40;;;;;;5039307;28;20045;-71
2021/09/26 10:36:54;;;;;;;10.48;7.72;;;20.70;10.00;;;;;;5041336;28;20091;-71
2021/09/26 10:39:26;;;;;;;12.70;8.15;;;20.50;9.40;;;;;;5042347;28;20516;-71
2021/09/26 10:42:10;;;;;;;9.52;7.88;;;20.50;12.00;;;;;;5048387;28;20037;-71
2021/09/26 10:44:44;;;;;;;10.02;8.38;;;20.50;13.40;;;;;;5044373;28;20068;-69
2021/09/26 10:47:22;;;;;;;11.40;8.00;;;20.50;16.60;;;;;;5038758;28;20331;-70
2021/09/26 10:50:05;;;;;;;11.40;8.68;;;20.30;18.50;;;;;;5044287;28;20061;-70
2021/09/26 10:52:36;;;;;;;11.13;8.73;;;20.40;18.20;;;;;;5031958;28;20056;-71
2021/09/26 10:55:32;;;;;;;9.48;8.05;;;20.40;15.80;;;;;;5038792;28;20037;-71
2021/09/26 10:58:14;;;;;;;10.25;8.30;;;20.40;17.90;;;;;;5043140;28;20044;-71
2021/09/26 11:00:50;;;;;;;10.25;8.38;;;20.30;16.00;;;;;;5038409;28;20038;-71
2021/09/26 11:03:21;;;;;;;12.35;8.38;;;20.40;15.00;;;;;;5049034;28;20859;-71
2021/09/26 11:05:51;;;;;;;11.43;9.13;;;20.40;15.70;;;;;;5041100;28;20044;-71
2021/09/26 11:08:41;;;;;;;9.82;8.68;;;20.40;17.20;;;;;;5009361;28;21785;-71
2021/09/26 11:11:44;;;;;;;12.63;9.30;;;20.40;19.10;;;;;;5036204;28;20136;-72
2021/09/26 11:14:17;;;;;;;14.27;9.85;;;20.40;18.40;;;;;;5040776;28;20616;-71
2021/09/26 11:16:50;;;;;;;12.48;9.23;;;20.10;18.70;;;;;;5041690;28;20443;-71
2021/09/26 11:19:20;;;;;;;13.25;9.65;;;20.10;18.60;;;;;;5037452;28;20674;-71
2021/09/26 11:21:58;;;;;;;12.50;9.57;;;20.10;20.90;;;;;;5040020;28;20048;-71
2021/09/26 11:24:58;;;;;;;11.43;9.00;;;20.10;19.90;;;;;;5026013;28;20455;-71
2021/09/26 11:27:40;;;;;;;10.30;8.63;;;20.10;19.10;;;;;;5038392;28;20037;-70
2021/09/26 11:30:26;;;;;;;12.55;9.07;;;20.10;19.70;;;;;;5036643;28;20049;-71
2021/09/26 11:33:05;;;;;;;10.05;8.88;;;20.10;18.90;;;;;;5036474;28;20124;-73
2021/09/26 11:35:40;;;;;;;10.77;9.10;;;20.10;17.50;;;;;;5024121;28;20049;-72
2021/09/26 11:38:14;;;;;;;12.75;9.10;;;20.10;19.30;;;;;;5002904;28;20069;-70
2021/09/26 11:41:01;;;;;;;10.57;8.02;;;20.10;20.10;;;;;;5021515;28;20131;-70
2021/09/26 11:43:37;;;;;;;13.02;8.50;;;20.10;19.80;;;;;;5028897;28;20072;-71
2021/09/26 11:46:24;;;;;;;11.40;9.40;;;20.10;20.40;;;;;;5039660;28;20144;-70
2021/09/26 11:48:58;;;;;;;10.30;8.77;;;20.10;21.90;;;;;;5036059;28;20116;-70
2021/09/26 11:51:32;;;;;;;15.57;8.88;;;20.10;21.70;;;;;;5036572;28;20038;-70
2021/09/26 11:54:00;;;;;;;9.15;8.18;;;20.20;22.00;;;;;;5035305;28;20527;-69
2021/09/26 11:56:31;;;;;;;8.95;8.02;;;20.10;21.10;;;;;;5031488;28;20046;-70
2021/09/26 11:59:06;;;;;;;10.90;8.38;;;20.00;22.10;;;;;;5009620;28;20041;-71
2021/09/26 12:01:42;;;;;;;13.93;8.15;;;20.10;19.00;;;;;;5029239;28;20057;-70
2021/09/26 12:04:20;;;;;;;9.20;8.05;;;20.00;20.30;;;;;;5044923;28;20059;-71
2021/09/26 12:06:56;;;;;;;9.50;8.27;;;20.10;21.10;;;;;;5030643;28;20562;-69
2021/09/26 12:09:37;;;;;;;11.63;8.23;;;20.20;21.20;;;;;;5031379;28;20179;-70
2021/09/26 12:12:10;;;;;;;9.77;8.20;;;20.20;19.00;;;;;;5038383;28;20045;-71
2021/09/26 12:14:40;;;;;;;9.55;8.40;;;20.20;19.90;;;;;;5035920;28;20662;-71
2021/09/26 12:17:11;;;;;;;9.80;8.80;;;20.40;18.80;;;;;;5031707;28;20135;-72
2021/09/26 12:19:46;;;;;;;11.20;8.38;;;20.60;19.30;;;;;;5018300;28;20067;-71
2021/09/26 12:22:17;;;;;;;9.52;8.50;;;20.60;17.80;;;;;;5035910;28;20575;-70
2021/09/26 12:24:53;;;;;;;11.48;8.15;;;20.80;18.30;;;;;;5036155;28;20475;-69
2021/09/26 12:27:29;;;;;;;14.25;8.95;;;20.90;15.70;;;;;;5034114;28;20309;-69
2021/09/26 12:30:02;;;;;;;10.88;8.98;;;21.00;15.30;;;;;;5036347;28;20064;-71
2021/09/26 12:32:33;;;;;;;10.60;8.07;;;21.00;15.30;;;;;;5035988;28;20182;-71
2021/09/26 12:35:09;;;;;;;9.90;7.68;;;21.20;11.40;;;;;;5035926;28;20045;-72
2021/09/26 12:37:47;;;;;;;9.63;8.27;;;21.40;12.70;;;;;;5033634;28;20060;-70
2021/09/26 12:40:26;;;;;;;9.70;8.43;;;21.20;11.50;;;;;;5033372;28;20048;-70
2021/09/26 12:42:57;;;;;;;13.25;7.93;;;21.40;8.80;;;;;;5027128;28;20060;-71
2021/09/26 12:45:36;;;;;;;8.48;7.53;;;21.50;8.20;;;;;;5016617;28;20059;-70
2021/09/26 12:48:05;;;;;;;10.18;7.97;;;21.80;10.60;;;;;;5034151;28;20076;-71
2021/09/26 12:50:40;;;;;;;11.52;8.50;;;21.80;8.40;;;;;;5031767;28;20524;-71
2021/09/26 12:53:15;;;;;;;8.38;7.40;;;22.00;9.80;;;;;;5031269;28;20045;-71
2021/09/26 12:55:53;;;;;;;9.65;7.55;;;22.40;6.80;;;;;;5041058;28;21108;-71
2021/09/26 12:58:30;;;;;;;7.90;6.90;;;22.60;6.80;;;;;;5027019;28;20044;-72
2021/09/26 13:01:10;;;;;;;10.23;7.50;;;22.40;4.00;;;;;;5030910;28;20045;-71
2021/09/26 13:03:50;;;;;;;9.63;7.70;;;21.90;4.60;;;;;;5027204;28;20345;-71
2021/09/26 13:06:34;;;;;;;7.93;6.78;;;22.00;6.70;;;;;;5034793;28;20143;-69